• Join FlightAware (Why Join?)
  • Login
  • US Flag 
02:14AM EDT


 

Airport Tracker/Info


-or-


 

Live Flight TrackerFlight Track Log ✈ UAL152 ✈ 20-Apr-2013 ✈ KEWR - EDDS / STR

Flight Track Log - Related Links

Times and Time Zones

All times are in EDT time to prevent confusion due to time zone crossing. See the UAL152 flight status page for this flight to view local times or setup timezone preferences in your user account.

Time Position Orientation Groundspeed Altitude Reporting Facility
EDT Latitude Longitude Course Direction KTS MPH feet Rate Location/Type
06:41PM 40.6220 -74.2040 201° Southwest 185 213 2,600  Level FlightAware
06:42PM 40.6190 -74.2160 252° West 190 219 2,900 1,680 Climbing FlightAware
06:42PM 40.6280 -74.2380 298° West 203 234 3,600 2,580 Climbing FlightAware
06:42PM 40.6370 -74.2430 337° Northwest 204 235 4,200 2,220 Climbing FlightAware
06:43PM 40.6660 -74.2340 13° North 229 264 5,100 1,500 Climbing FlightAware
06:43PM 40.6858 -74.2185 31° Northeast 264 304 5,400 1,200 Climbing FlightAware ADS-B
06:43PM 40.7128 -74.1962 32° Northeast 280 322 6,000 1,800 Climbing FlightAware ADS-B
06:44PM 40.7433 -74.1507 48° Northeast 282 325 7,200 2,580 Climbing FlightAware ADS-B
06:44PM 40.7560 -74.1299 51° Northeast 277 319 8,200 2,820 Climbing FlightAware ADS-B
06:44PM 40.7733 -74.1025 50° Northeast 291 335 8,900 2,160 Climbing FlightAware ADS-B
06:45PM 40.7919 -74.0739 49° Northeast 299 344 9,700 1,560 Climbing FlightAware ADS-B
06:45PM 40.8077 -74.0496 49° Northeast 329 379 9,900 360 Climbing FlightAware ADS-B
06:45PM 40.8214 -74.0283 50° Northeast 353 406 9,900  Level FlightAware ADS-B
06:45PM 40.8264 -74.0203 50° Northeast 357 411 9,900  Level FlightAware ADS-B
06:46PM 40.8372 -74.0031 50° Northeast 360 414 9,900  Level FlightAware ADS-B
06:46PM 40.8430 -73.9940 50° Northeast 361 415 9,900  Level FlightAware ADS-B
06:46PM 40.8597 -73.9674 50° Northeast 363 418 9,900  Level FlightAware ADS-B
06:46PM 40.8614 -73.9646 51° Northeast 361 415 9,900  Level FlightAware ADS-B
06:46PM 40.8764 -73.9407 50° Northeast 364 419 9,900  Level FlightAware ADS-B
06:46PM 40.8820 -73.9318 50° Northeast 364 419 9,900  Level FlightAware ADS-B
06:46PM 40.8930 -73.9141 51° Northeast 366 421 9,900  Level FlightAware ADS-B
06:47PM 40.8992 -73.9045 49° Northeast 369 425 9,900 720 Level FlightAware ADS-B
06:47PM 40.9284 -73.8580 50° Northeast 366 421 10,300 1,200 Climbing FlightAware ADS-B
06:48PM 40.9814 -73.7739 50° Northeast 373 429 11,400 1,740 Climbing FlightAware ADS-B
06:48PM 41.0220 -73.7100 50° Northeast 402 463 12,800 2,220 Climbing FlightAware
06:49PM 41.0405 -73.6797 51° Northeast 400 460 13,300 2,160 Climbing FlightAware ADS-B
06:50PM 41.1300 -73.5360 50° Northeast 434 499 15,900 1,920 Climbing FlightAware
06:51PM 41.1870 -73.4440 51° Northeast 450 518 17,100 1,800 Climbing FlightAware
06:51PM 41.2360 -73.3440 57° Northeast 459 528 18,600 2,040 Climbing FlightAware
06:52PM 41.2861 -73.2423 57° Northeast 467 537 20,000 1,860 Climbing FlightAware ADS-B
06:53PM 41.3306 -73.1547 56° Northeast 483 556 20,900 1,620 Climbing FlightAware ADS-B
06:53PM 41.3747 -73.0682 56° Northeast 492 566 21,900 1,620 Climbing FlightAware ADS-B
06:54PM 41.4212 -72.9766 56° Northeast 504 580 22,800 1,440 Climbing FlightAware ADS-B
06:55PM 41.5110 -72.7990 56° Northeast 519 597 24,500 1,320 Climbing FlightAware
06:56PM 41.5740 -72.6730 56° Northeast 535 616 25,400 1,020 Climbing FlightAware
06:56PM 41.6100 -72.6000 57° Northeast 26,100 960 Climbing FlightAware
06:57PM 41.6780 -72.4580 57° Northeast 537 618 26,700 900 Climbing FlightAware
06:58PM 41.7500 -72.3240 54° Northeast 580 667 27,500 960 Climbing FlightAware
06:58PM 41.8320 -72.2110 46° Northeast 596 686 28,200 900 Climbing FlightAware
06:59PM 41.9160 -72.1120 41° Northeast 604 695 28,800 960 Climbing FlightAware
07:00PM 42.0060 -72.0050 41° Northeast 616 709 29,500 1,080 Climbing FlightAware
07:00PM 42.0920 -71.9020 42° Northeast 620 713 30,300 1,260 Climbing FlightAware
07:01PM 42.1920 -71.7830 41° Northeast 617 710 31,300 1,440 Climbing FlightAware
07:02PM 42.2850 -71.6720 41° Northeast 609 701 32,500 1,500 Climbing FlightAware
07:03PM 42.3600 -71.5820 42° Northeast 605 696 33,300 1,320 Climbing FlightAware
07:03PM 42.4520 -71.4710 42° Northeast 601 692 34,300 1,080 Climbing FlightAware
07:04PM 42.5480 -71.3550 42° Northeast 601 692 35,000 480 Climbing FlightAware
07:05PM 42.6310 -71.2530 42° Northeast 606 697 35,000  Level FlightAware
07:05PM 42.7230 -71.1410 42° Northeast 606 697 35,000  Level FlightAware
07:06PM 42.8040 -71.0420 42° Northeast 603 694 35,000  Level FlightAware
07:07PM 42.8880 -70.9390 42° Northeast 601 692 35,000  Level FlightAware
07:08PM 42.9810 -70.8230 42° Northeast 598 688 35,000  Level FlightAware
07:08PM 43.0650 -70.7200 42° Northeast 598 688 35,000  Level FlightAware
07:09PM 43.1550 -70.6080 42° Northeast 597 687 35,000  Level FlightAware
07:10PM 43.2340 -70.5080 43° Northeast 598 688 35,000  Level FlightAware
07:10PM 43.3180 -70.4030 42° Northeast 598 688 35,000  Level FlightAware
07:11PM 43.4060 -70.2920 42° Northeast 600 690 35,000  Level FlightAware
07:12PM 43.4940 -70.1820 42° Northeast 602 693 35,000  Level FlightAware
07:12PM 43.5750 -70.0790 43° Northeast 605 696 35,000  Level FlightAware
07:13PM 43.6660 -69.9620 43° Northeast 609 701 35,000  Level FlightAware
07:14PM 43.7480 -69.8570 43° Northeast 612 704 35,000  Level FlightAware
07:15PM 43.8440 -69.7330 43° Northeast 613 705 35,000  Level FlightAware
07:15PM 43.9280 -69.6250 43° Northeast 614 707 35,000  Level FlightAware
07:16PM 44.0170 -69.5100 43° Northeast 615 708 35,000  Level FlightAware
07:17PM 44.1000 -69.4010 43° Northeast 614 707 35,000  Level FlightAware
07:17PM 44.1840 -69.2920 43° Northeast 615 708 35,000  Level FlightAware
07:18PM 44.2760 -69.1710 43° Northeast 615 708 35,000  Level FlightAware
07:19PM 44.3440 -69.0800 44° Northeast 615 708 35,000  Level FlightAware
07:19PM 44.4450 -68.9470 43° Northeast 614 707 35,000  Level FlightAware
07:20PM 44.5350 -68.8260 44° Northeast 613 705 35,000  Level FlightAware
07:21PM 44.6170 -68.7170 43° Northeast 613 705 35,000  Level FlightAware
07:22PM 44.7100 -68.5920 44° Northeast 611 703 35,000  Level FlightAware
07:22PM 44.7870 -68.4880 44° Northeast 611 703 35,000  Level FlightAware
07:23PM 44.8810 -68.3610 44° Northeast 610 702 35,000  Level FlightAware
07:24PM 44.9620 -68.2510 44° Northeast 609 701 35,000  Level FlightAware
07:24PM 45.0440 -68.1390 44° Northeast 608 700 35,000  Level FlightAware
07:25PM 45.1360 -68.0130 44° Northeast 608 700 35,000  Level FlightAware
07:26PM 45.2140 -67.9060 44° Northeast 607 699 35,000  Level FlightAware
07:26PM 45.2960 -67.7920 44° Northeast 607 699 35,000  Level FlightAware
07:27PM 45.3910 -67.6760 41° Northeast 607 699 35,000  Level FlightAware
07:28PM 45.5060 -67.5470 38° Northeast 600 690 35,000  Level FlightAware
07:29PM 45.6050 -67.4370 38° Northeast 608 700 35,000  Level FlightAware
07:29PM 45.6940 -67.3380 38° Northeast 601 692 35,000  Level FlightAware
07:30PM 45.7820 -67.2400 38° Northeast 601 692 35,000  Level FlightAware
07:31PM 45.8820 -67.1260 38° Northeast 601 692 35,000  Level FlightAware
07:32PM 45.9670 -67.0300 38° Northeast 600 690 35,000  Level FlightAware
07:32PM 46.0640 -66.9210 38° Northeast 605 696 35,000  Level FlightAware
07:33PM 46.1640 -66.8070 38° Northeast 605 696 35,000  Level FlightAware
07:34PM 46.2510 -66.7060 39° Northeast 606 697 35,000  Level FlightAware
07:34PM 46.3190 -66.6300 38° Northeast 606 697 35,000  Level FlightAware
07:35PM 46.4130 -66.5240 38° Northeast 606 697 35,000  Level FlightAware
07:36PM 46.4880 -66.4380 38° Northeast 606 697 35,000  Level FlightAware
07:36PM 46.5630 -66.3530 38° Northeast 606 697 35,000  Level FlightAware
07:37PM 46.6380 -66.2680 38° Northeast 606 697 35,000  Level FlightAware
07:38PM 46.6940 -66.2040 38° Northeast 606 697 35,000  Level FlightAware
07:38PM 46.7690 -66.1180 38° Northeast 606 697 35,000  Level FlightAware
07:39PM 46.8630 -66.0110 38° Northeast 606 697 35,000  Level FlightAware
07:40PM 46.9380 -65.9250 38° Northeast 606 697 35,000  Level FlightAware
07:40PM 47.0140 -65.8390 38° Northeast 606 697 35,000  Level FlightAware
07:41PM 47.0890 -65.7530 38° Northeast 606 697 35,000  Level FlightAware
07:42PM 47.1640 -65.6660 38° Northeast 606 697 35,000  Level FlightAware
07:43PM 47.2580 -65.5580 38° Northeast 606 697 35,000  Level FlightAware
07:43PM 47.3330 -65.4720 38° Northeast 606 697 35,000  Level FlightAware
07:43PM 47.5333 -65.1667 38° Northeast 610 702 35,000  Level Gander Center
07:44PM 47.6167 -65.1000 28° Northeast 610 702 35,000  Level Moncton Center
07:45PM 47.7333 -64.9167 47° Northeast 610 702 35,000  Level Moncton Center
07:46PM 47.8667 -64.7500 40° Northeast 610 702 35,000  Level Moncton Center
07:47PM 47.9833 -64.6000 41° Northeast 610 702 35,000  Level Moncton Center
07:48PM 48.1167 -64.4500 37° Northeast 600 690 35,000  Level Moncton Center
07:49PM 48.2500 -64.2667 42° Northeast 610 702 35,000  Level Moncton Center
07:50PM 48.3833 -64.1167 37° Northeast 610 702 35,000  Level Moncton Center
07:51PM 48.5167 -63.9500 40° Northeast 610 702 35,000  Level Moncton Center
07:52PM 48.6333 -63.7667 46° Northeast 610 702 35,000  Level Moncton Center
07:53PM 48.7667 -63.6167 37° Northeast 610 702 35,000  Level Moncton Center
07:54PM 48.9000 -63.4333 42° Northeast 610 702 35,000  Level Moncton Center
07:54PM 48.9500 -63.3667 41° Northeast 610 702 35,000  Level Gander Center
07:55PM 49.0833 -63.2000 39° Northeast 600 690 35,000  Level Gander Center
07:56PM 49.1500 -63.0833 49° Northeast 620 713 35,000  Level Moncton Center
07:57PM 49.2833 -62.9167 39° Northeast 610 702 35,000  Level Moncton Center
07:58PM 49.4167 -62.7500 39° Northeast 610 702 35,000  Level Moncton Center
07:59PM 49.5500 -62.5667 42° Northeast 610 702 35,000  Level Moncton Center
08:00PM 49.7167 -62.3167 44° Northeast 600 690 35,000  Level Gander Center
08:01PM 49.8500 -62.1667 36° Northeast 620 713 35,000  Level Gander Center
08:02PM 49.9667 -61.9500 50° Northeast 620 713 35,000  Level Gander Center
08:03PM 50.0500 -61.8667 33° Northeast 620 713 35,000  Level Moncton Center
08:04PM 50.1667 -61.6833 45° Northeast 610 702 35,000  Level Moncton Center
08:04PM 50.2333 -61.6000 39° Northeast 620 713 35,000  Level Gander Center
08:05PM 50.3333 -61.4333 47° Northeast 600 690 35,000  Level Gander Center
08:06PM 50.4667 -61.2500 41° Northeast 630 725 35,000  Level Gander Center
08:07PM 50.6000 -61.0667 41° Northeast 610 702 35,000 -60 Level Gander Center
08:08PM 50.7167 -60.8833 45° Northeast 610 702 34,900  Descending Gander Center
08:09PM 50.8500 -60.7000 41° Northeast 610 702 35,000  Climbing Gander Center
08:10PM 50.9833 -60.5167 41° Northeast 610 702 35,000  Level Gander Center
08:11PM 51.1000 -60.3167 47° Northeast 600 690 35,000  Level Gander Center
08:12PM 51.2167 -60.1333 45° Northeast 610 702 35,000  Level Gander Center
08:13PM 51.2833 -60.0333 43° Northeast 600 690 35,000  Level Moncton Center
08:14PM 51.4167 -59.8333 43° Northeast 600 690 35,000  Level Moncton Center
08:15PM 51.5167 -59.6333 51° Northeast 610 702 35,000  Level Moncton Center
08:15PM 51.5667 -59.5333 51° Northeast 600 690 35,000  Level Gander Center
08:16PM 51.6333 -59.4167 47° Northeast 600 690 35,000  Level Gander Center
08:16PM 51.6667 -59.3333 57° Northeast 600 690 35,000  Level Gander Center
08:17PM 51.7833 -59.1500 44° Northeast 610 702 35,000  Level Gander Center
08:18PM 51.9000 -58.9167 51° Northeast 600 690 35,000  Level Gander Center
08:19PM 52.0000 -58.7333 48° Northeast 600 690 35,000  Level Gander Center
08:20PM 52.1167 -58.5333 46° Northeast 600 690 35,000  Level Gander Center
08:22PM 52.2833 -58.1667 53° Northeast 610 702 35,000  Level Gander Center
08:22PM 52.3333 -58.1000 39° Northeast 610 702 35,000  Level Gander Center
08:23PM 52.4500 -57.8833 48° Northeast 600 690 35,000  Level Gander Center
08:24PM 52.5333 -57.6833 56° Northeast 610 702 35,000  Level Gander Center
08:25PM 52.6000 -57.5667 47° Northeast 600 690 35,000  Level Moncton Center
08:26PM 52.7167 -57.3167 52° Northeast 600 690 35,000  Level Moncton Center
08:27PM 52.8167 -57.1167 50° Northeast 600 690 35,000  Level Moncton Center
08:28PM 52.9333 -56.9000 48° Northeast 600 690 35,000  Level Moncton Center
08:28PM 52.9833 -56.8167 45° Northeast 600 690 35,000  Level Gander Center
08:29PM 53.0667 -56.6000 57° Northeast 600 690 35,000  Level Gander Center
08:30PM 53.1333 -56.4667 50° Northeast 600 690 35,000  Level Moncton Center
08:30PM 53.1833 -56.3667 50° Northeast 590 679 35,000  Level Gander Center
08:31PM 53.2833 -56.1667 50° Northeast 600 690 35,000  Level Gander Center
08:32PM 53.3333 -56.0500 54° Northeast 590 679 35,000  Level Moncton Center
08:33PM 53.4500 -55.8167 50° Northeast 600 690 35,000  Level Moncton Center
08:33PM 53.4833 -55.7500 50° Northeast 590 679 35,000  Level Gander Center
08:34PM 53.5500 -55.6000 53° Northeast 590 679 35,000  Level Moncton Center
08:35PM 53.6500 -55.3833 52° Northeast 590 679 35,000  Level Moncton Center
08:35PM 53.7000 -55.2833 50° Northeast 600 690 35,000  Level Gander Center
08:36PM 53.7833 -55.0833 55° Northeast 580 667 35,000  Level Gander Center
08:37PM 53.8833 -54.8333 56° Northeast 590 679 35,000  Level Gander Center
08:38PM 53.9333 -54.6000 70° East 580 667 35,000  Level Gander Center
08:39PM 53.9667 -54.3333 78° East 580 667 35,000  Level Gander Center
08:40PM 54.0333 -54.0667 67° East 580 667 35,000  Level Gander Center
08:41PM 54.0833 -53.8000 72° East 590 679 35,000  Level Gander Center
08:42PM 54.1500 -53.5667 64° Northeast 590 679 35,000  Level Gander Center
08:43PM 54.2167 -53.3000 67° East 590 679 35,000  Level Gander Center
08:44PM 54.2667 -53.0333 72° East 590 679 35,000  Level Gander Center
08:46PM 54.3833 -52.5667 67° East 280 322 35,000  Level Gander Center
08:47PM 54.4167 -52.4167 69° East 470 541 35,000  Level Gander Center
08:48PM 54.4833 -52.1833 64° Northeast 580 667 35,000  Level Gander Center
08:48PM 54.4833 -52.0500 90° East 580 667 35,000  Level Gander Center
08:49PM 54.5500 -51.8167 64° Northeast 570 656 35,000  Level Gander Center
08:50PM 54.6333 -51.6500 49° Northeast 580 667 35,000  Level Gander Center
08:51PM 54.6833 -51.2833 77° East 580 667 35,000  Level Gander Center
08:52PM 54.6833 -51.1167 90° East 570 656 35,000  Level Gander Center
08:53PM 54.7500 -50.8667 65° Northeast 570 656 35,000  Level Gander Center
08:53PM 54.7667 -50.7667 74° East 570 656 35,000  Level Gander Center
08:54PM 54.8500 -50.5167 60° Northeast 570 656 35,000  Level Gander Center
08:56PM 54.9167 -50.0833 75° East 570 656 35,000  Level Gander Center
08:58PM 55.0327 -49.7695 76° East  Level FlightAware Approximate
09:05PM 55.2633 -48.0353 76° East  Level FlightAware Approximate
09:06PM 55.2942 -47.7860 78° East  Level FlightAware Approximate
09:07PM 55.3246 -47.5362 78° East  Level FlightAware Approximate
09:08PM 55.3545 -47.2861 78° East  Level FlightAware Approximate
09:09PM 55.3832 -47.0354 79° East  Level FlightAware Approximate
09:10PM 55.4107 -46.7840 79° East  Level FlightAware Approximate
09:11PM 55.4378 -46.5324 79° East  Level FlightAware Approximate
09:12PM 55.4643 -46.2804 79° East  Level FlightAware Approximate
09:13PM 55.4903 -46.0280 80° East  Level FlightAware Approximate
09:14PM 55.5158 -45.7754 80° East  Level FlightAware Approximate
09:15PM 55.5428 -45.5230 79° East  Level FlightAware Approximate
09:16PM 55.5694 -45.2704 79° East  Level FlightAware Approximate
09:17PM 55.5955 -45.0174 80° East  Level FlightAware Approximate
09:18PM 55.6211 -44.7641 80° East  Level FlightAware Approximate
09:19PM 55.6461 -44.5104 80° East  Level FlightAware Approximate
09:20PM 55.6706 -44.2565 80° East  Level FlightAware Approximate
09:21PM 55.6946 -44.0022 80° East  Level FlightAware Approximate
09:22PM 55.7181 -43.7476 81° East  Level FlightAware Approximate
09:23PM 55.7410 -43.4927 81° East  Level FlightAware Approximate
09:24PM 55.7634 -43.2375 81° East  Level FlightAware Approximate
09:25PM 55.7853 -42.9820 81° East  Level FlightAware Approximate
09:26PM 55.8066 -42.7262 81° East  Level FlightAware Approximate
09:27PM 55.8274 -42.4702 82° East  Level FlightAware Approximate
09:28PM 55.8477 -42.2139 82° East  Level FlightAware Approximate
09:29PM 55.8675 -41.9573 82° East  Level FlightAware Approximate
09:30PM 55.8867 -41.7005 82° East  Level FlightAware Approximate
09:31PM 55.9054 -41.4434 83° East  Level FlightAware Approximate
09:32PM 55.9235 -41.1861 83° East  Level FlightAware Approximate
09:33PM 55.9411 -40.9285 83° East  Level FlightAware Approximate
09:34PM 55.9582 -40.6707 83° East  Level FlightAware Approximate
09:35PM 55.9747 -40.4127 83° East  Level FlightAware Approximate
09:36PM 55.9907 -40.1544 84° East  Level FlightAware Approximate
09:37PM 56.0042 -39.8957 86° East  Level FlightAware Approximate
09:38PM 56.0142 -39.6363 86° East  Level FlightAware Approximate
09:39PM 56.0237 -39.3768 86° East  Level FlightAware Approximate
09:40PM 56.0326 -39.1172 86° East  Level FlightAware Approximate
09:41PM 56.0410 -38.8574 87° East  Level FlightAware Approximate
09:42PM 56.0489 -38.5975 87° East  Level FlightAware Approximate
09:43PM 56.0561 -38.3376 87° East  Level FlightAware Approximate
09:44PM 56.0629 -38.0775 87° East  Level FlightAware Approximate
09:45PM 56.0691 -37.8174 87° East  Level FlightAware Approximate
09:46PM 56.0748 -37.5572 88° East  Level FlightAware Approximate
09:47PM 56.0799 -37.2969 88° East  Level FlightAware Approximate
09:48PM 56.0844 -37.0365 88° East  Level FlightAware Approximate
09:49PM 56.0884 -36.7761 88° East  Level FlightAware Approximate
09:50PM 56.0919 -36.5156 89° East  Level FlightAware Approximate
09:51PM 56.0948 -36.2551 89° East  Level FlightAware Approximate
09:52PM 56.0972 -35.9946 89° East  Level FlightAware Approximate
09:53PM 56.0990 -35.7340 89° East  Level FlightAware Approximate
09:54PM 56.1003 -35.4734 89° East  Level FlightAware Approximate
09:55PM 56.1010 -35.2128 90° East  Level FlightAware Approximate
09:56PM 56.1012 -34.9522 90° East  Level FlightAware Approximate
09:57PM 56.1008 -34.6916 90° East  Level FlightAware Approximate
09:58PM 56.0999 -34.4310 90° East  Level FlightAware Approximate
09:59PM 56.0984 -34.1704 90° East  Level FlightAware Approximate
10:00PM 56.0964 -33.9098 91° East  Level FlightAware Approximate
10:01PM 56.0938 -33.6493 91° East  Level FlightAware Approximate
10:02PM 56.0907 -33.3888 91° East  Level FlightAware Approximate
10:03PM 56.0870 -33.1283 91° East  Level FlightAware Approximate
10:04PM 56.0828 -32.8679 92° East  Level FlightAware Approximate
10:05PM 56.0781 -32.6076 92° East  Level FlightAware Approximate
10:06PM 56.0728 -32.3473 92° East  Level FlightAware Approximate
10:07PM 56.0669 -32.0871 92° East  Level FlightAware Approximate
10:08PM 56.0605 -31.8270 92° East  Level FlightAware Approximate
10:09PM 56.0536 -31.5670 93° East  Level FlightAware Approximate
10:10PM 56.0461 -31.3071 93° East  Level FlightAware Approximate
10:11PM 56.0380 -31.0473 93° East  Level FlightAware Approximate
10:12PM 56.0294 -30.7875 93° East  Level FlightAware Approximate
10:13PM 56.0203 -30.5280 93° East  Level FlightAware Approximate
10:14PM 56.0106 -30.2685 94° East  Level FlightAware Approximate
10:15PM 56.0004 -30.0092 94° East  Level FlightAware Approximate
10:16PM 55.9854 -29.7507 96° East  Level FlightAware Approximate
10:17PM 55.9698 -29.4924 96° East  Level FlightAware Approximate
10:18PM 55.9536 -29.2344 96° East  Level FlightAware Approximate
10:19PM 55.9369 -28.9765 96° East  Level FlightAware Approximate
10:20PM 55.9196 -28.7189 97° East  Level FlightAware Approximate
10:21PM 55.9018 -28.4615 97° East  Level FlightAware Approximate
10:22PM 55.8835 -28.2044 97° East  Level FlightAware Approximate
10:23PM 55.8647 -27.9475 97° East  Level FlightAware Approximate
10:24PM 55.8452 -27.6908 98° East  Level FlightAware Approximate
10:25PM 55.8253 -27.4345 98° East  Level FlightAware Approximate
10:26PM 55.8049 -27.1783 98° East  Level FlightAware Approximate
10:27PM 55.7839 -26.9225 98° East  Level FlightAware Approximate
10:28PM 55.7623 -26.6669 98° East  Level FlightAware Approximate
10:29PM 55.7403 -26.4116 99° East  Level FlightAware Approximate
10:30PM 55.7177 -26.1566 99° East  Level FlightAware Approximate
10:31PM 55.6946 -25.9020 99° East  Level FlightAware Approximate
10:32PM 55.6709 -25.6476 99° East  Level FlightAware Approximate
10:33PM 55.6468 -25.3935 99° East  Level FlightAware Approximate
10:34PM 55.6221 -25.1397 100° East  Level FlightAware Approximate
10:35PM 55.5969 -24.8863 100° East  Level FlightAware Approximate
10:36PM 55.5711 -24.6332 100° East  Level FlightAware Approximate
10:37PM 55.5449 -24.3804 100° East  Level FlightAware Approximate
10:38PM 55.5181 -24.1280 101° East  Level FlightAware Approximate
10:39PM 55.4908 -23.8759 101° East  Level FlightAware Approximate
10:40PM 55.4630 -23.6241 101° East  Level FlightAware Approximate
10:41PM 55.4347 -23.3728 101° East  Level FlightAware Approximate
10:42PM 55.4058 -23.1218 101° East  Level FlightAware Approximate
10:43PM 55.3765 -22.8711 102° East  Level FlightAware Approximate
10:44PM 55.3466 -22.6208 102° East  Level FlightAware Approximate
10:45PM 55.3162 -22.3710 102° East  Level FlightAware Approximate
10:46PM 55.2853 -22.1215 102° East  Level FlightAware Approximate
10:47PM 55.2539 -21.8724 102° East  Level FlightAware Approximate
10:48PM 55.2220 -21.6236 103° East  Level FlightAware Approximate
10:49PM 55.1896 -21.3753 103° East  Level FlightAware Approximate
10:50PM 55.1567 -21.1274 103° East  Level FlightAware Approximate
10:51PM 55.1233 -20.8799 103° East  Level FlightAware Approximate
10:52PM 55.0894 -20.6329 103° East  Level FlightAware Approximate
10:53PM 55.0550 -20.3862 104° East  Level FlightAware Approximate
10:54PM 55.0201 -20.1400 104° East  Level FlightAware Approximate
10:55PM 54.9902 -19.8922 99° East  Level FlightAware Approximate
10:56PM 54.9670 -19.6421 99° East  Level FlightAware Approximate
10:57PM 54.9434 -19.3924 99° East  Level FlightAware Approximate
10:58PM 54.9192 -19.1429 99° East  Level FlightAware Approximate
10:59PM 54.8945 -18.8937 100° East  Level FlightAware Approximate
11:00PM 54.8693 -18.6449 100° East  Level FlightAware Approximate
11:01PM 54.8436 -18.3964 100° East  Level FlightAware Approximate
11:02PM 54.8174 -18.1481 100° East  Level FlightAware Approximate
11:03PM 54.7907 -17.9003 100° East  Level FlightAware Approximate
11:04PM 54.7635 -17.6527 101° East  Level FlightAware Approximate
11:05PM 54.7358 -17.4055 101° East  Level FlightAware Approximate
11:06PM 54.7076 -17.1586 101° East  Level FlightAware Approximate
11:07PM 54.6788 -16.9121 101° East  Level FlightAware Approximate
11:08PM 54.6496 -16.6659 101° East  Level FlightAware Approximate
11:09PM 54.6199 -16.4200 102° East  Level FlightAware Approximate
11:10PM 54.5897 -16.1746 102° East  Level FlightAware Approximate
11:11PM 54.5590 -15.9295 102° East  Level FlightAware Approximate
11:12PM 54.5278 -15.6847 102° East  Level FlightAware Approximate
11:13PM 54.4961 -15.4404 102° East  Level FlightAware Approximate
11:14PM 54.4639 -15.1964 103° East  Level FlightAware Approximate
11:14PM 53.9540 -14.1340 103° East 516 594 35,000  Level FlightAware
11:14PM 53.9410 -13.9800 98° East 514 592 35,800 1,200 Climbing FlightAware
11:15PM 53.9250 -13.8170 99° East 515 593 36,600 1,260 Climbing FlightAware
11:16PM 53.9060 -13.6340 100° East 514 592 37,600 900 Climbing FlightAware
11:16PM 53.8880 -13.4570 100° East 517 595 38,000 240 Climbing FlightAware
11:17PM 53.8710 -13.2950 100° East 521 600 38,000  Level FlightAware
11:18PM 53.8530 -13.1230 100° East 520 598 38,000  Level FlightAware
11:18PM 53.8350 -12.9560 100° East 518 596 38,000  Level FlightAware
11:19PM 53.8160 -12.7810 100° East 519 597 38,000  Level FlightAware
11:20PM 53.8010 -12.6480 101° East 519 597 38,000  Level FlightAware
11:21PM 53.7800 -12.4590 101° East 519 597 38,000  Level FlightAware
11:21PM 53.7600 -12.2770 100° East 518 596 38,000  Level FlightAware
11:23PM 53.7180 -11.9180 101° East 516 594 38,000  Level FlightAware
11:24PM 53.6850 -11.6420 101° East 515 593 38,000  Level FlightAware
11:25PM 53.6590 -11.4270 101° East 511 588 38,000  Level FlightAware
11:26PM 53.6370 -11.2490 102° East 510 587 38,000  Level FlightAware
11:26PM 53.6180 -11.0960 102° East 508 585 38,000  Level FlightAware
11:27PM 53.5960 -10.9190 102° East 506 582 38,000  Level FlightAware
11:28PM 53.5770 -10.7690 102° East 507 583 38,000  Level FlightAware
11:29PM 53.5540 -10.5960 103° East 505 581 38,000  Level FlightAware
11:29PM 53.5340 -10.4400 102° East 503 579 38,000  Level FlightAware
11:30PM 53.5140 -10.2900 103° East 503 579 38,000  Level FlightAware
11:31PM 53.4920 -10.1210 102° East 504 580 38,000  Level FlightAware
11:31PM 53.4700 -9.9650 103° East 503 579 38,000  Level FlightAware
11:32PM 53.4470 -9.7960 103° East 502 578 38,000  Level FlightAware
11:33PM 53.4260 -9.6450 103° East 503 579 38,000  Level FlightAware
11:33PM 53.4060 -9.4970 103° East 503 579 38,000  Level FlightAware
11:34PM 53.3810 -9.3190 103° East 503 579 38,000  Level FlightAware
11:35PM 53.3590 -9.1700 104° East 504 580 38,000 -1,200 Level FlightAware
11:35PM 53.3279 -8.9924 104° East 456 525 36,500  Descending FlightAware UK
11:35PM 53.3370 -9.0180 104° East 501 577 38,000  Climbing FlightAware
11:36PM 53.3179 -8.9245 104° East 460 529 36,500 -2,760 Descending FlightAware UK
11:36PM 53.3079 -8.8566 104° East 462 532 36,500 3,000 Level FlightAware UK
11:36PM 53.3130 -8.8490 104° East 500 575 38,000  Climbing FlightAware
11:37PM 53.2913 -8.7439 104° East 462 532 36,500  Descending FlightAware UK
11:37PM 53.2910 -8.7010 104° East 499 574 38,000  Climbing FlightAware
11:37PM 53.2781 -8.6540 104° East 460 529 36,500 -4,500 Descending FlightAware UK
11:37PM 53.2681 -8.5868 104° East 462 532 36,500  Level FlightAware UK
11:38PM 53.2580 -8.5196 104° East 460 529 36,500 3,600 Level FlightAware UK
11:38PM 53.2650 -8.5300 104° East 498 573 38,000  Climbing FlightAware
11:38PM 53.2445 -8.4303 104° East 462 532 36,500  Descending FlightAware UK
11:38PM 53.2430 -8.3840 104° East 496 571 38,000  Climbing FlightAware
11:38PM 53.2310 -8.3405 104° East 464 534 36,500 -4,740 Descending FlightAware UK
11:39PM 53.2208 -8.2737 104° East 466 536 36,500  Level FlightAware UK
11:39PM 53.2107 -8.2070 104° East 464 534 36,500 3,420 Level FlightAware UK
11:39PM 53.2170 -8.2140 104° East 494 568 38,000  Climbing FlightAware
11:39PM 53.1973 -8.1180 104° East 460 529 36,500 -2,700 Descending FlightAware UK
11:40PM 53.1871 -8.0516 104° East 460 529 36,500 3,720 Level FlightAware UK
11:40PM 53.1940 -8.0650 104° East 493 567 38,000  Climbing FlightAware
11:40PM 53.1733 -7.9633 104° East 458 527 36,500 -2,520 Descending FlightAware UK
11:40PM 53.1629 -7.8965 105° East 460 529 36,500 4,080 Level FlightAware UK
11:40PM 53.1720 -7.9180 105° East 493 567 38,000  Climbing FlightAware
11:41PM 53.1492 -7.8085 105° East 460 529 36,500 -2,400 Descending FlightAware UK
11:41PM 53.1389 -7.7425 105° East 458 527 36,500 3,600 Level FlightAware UK
11:41PM 53.1460 -7.7540 105° East 492 566 38,000  Climbing FlightAware
11:41PM 53.1250 -7.6545 105° East 458 527 36,500 -2,580 Descending FlightAware UK
11:42PM 53.1148 -7.5887 104° East 458 527 36,500 3,900 Level FlightAware UK
11:42PM 53.1220 -7.6060 104° East 491 565 38,000  Climbing FlightAware
11:42PM 53.1008 -7.5011 104° East 456 525 36,500 -2,460 Descending FlightAware UK
11:42PM 53.0902 -7.4347 105° East 454 522 36,500 4,260 Level FlightAware UK
11:42PM 53.0990 -7.4630 105° East 492 566 38,000  Climbing FlightAware
11:43PM 53.0798 -7.3699 105° East 454 522 36,500 -2,760 Descending FlightAware UK
11:43PM 53.0692 -7.3036 105° East 458 527 36,500 3,000 Level FlightAware UK
11:43PM 53.0730 -7.2960 105° East 492 566 38,000  Climbing FlightAware
11:44PM 53.0516 -7.1944 105° East 458 527 36,500 -2,520 Descending FlightAware UK
11:44PM 53.0408 -7.1283 105° East 460 529 36,500 4,080 Level FlightAware UK
11:44PM 53.0490 -7.1520 105° East 492 566 38,000  Climbing FlightAware
11:44PM 53.0267 -7.0412 105° East 458 527 36,500 -2,400 Descending FlightAware UK
11:45PM 53.0161 -6.9767 105° East 464 534 36,500 3,600 Level FlightAware UK
11:45PM 53.0230 -6.9900 105° East 490 564 38,000  Climbing FlightAware
11:45PM 53.0017 -6.8901 105° East 464 534 36,500  Descending FlightAware UK
11:45PM 53.0010 -6.8610 105° East 488 562 38,000  Climbing FlightAware
11:46PM 52.9801 -6.7598 105° East 460 529 36,500 -2,100 Descending FlightAware UK
11:46PM 52.9656 -6.6729 105° East 458 527 36,500 3,300 Level FlightAware UK
11:46PM 52.9740 -6.7000 105° East 487 560 38,000  Climbing FlightAware
11:46PM 52.9512 -6.5871 105° East 458 527 36,500  Descending FlightAware UK
11:47PM 52.9470 -6.5400 105° East 486 559 38,000  Climbing FlightAware
11:47PM 52.9368 -6.5006 105° East 460 529 36,500 -4,740 Descending FlightAware UK
11:47PM 52.9260 -6.4372 105° East 462 532 36,500  Level FlightAware UK
11:47PM 52.9151 -6.3731 106° East 464 534 36,500 4,260 Level FlightAware UK
11:47PM 52.9230 -6.3960 106° East 484 557 38,000  Climbing FlightAware
11:48PM 52.9005 -6.2879 106° East 460 529 36,500 -2,340 Descending FlightAware UK
11:48PM 52.8896 -6.2242 106° East 462 532 36,500 3,720 Level FlightAware UK
11:48PM 52.8960 -6.2380 106° East 481 554 38,000  Climbing FlightAware
11:49PM 52.8714 -6.1184 106° East 454 522 36,500  Descending FlightAware UK
11:49PM 52.8710 -6.0940 106° East 479 551 38,000  Climbing FlightAware
11:49PM 52.8495 -5.9915 106° East 452 520 36,500 -2,400 Descending FlightAware UK
11:49PM 52.8387 -5.9293 106° East 448 516 36,500 3,600 Level FlightAware UK
11:50PM 52.8440 -5.9380 106° East 477 549 38,000  Climbing FlightAware
11:50PM 52.8239 -5.8450 106° East 450 518 36,500 -2,580 Descending FlightAware UK
11:50PM 52.8127 -5.7816 106° East 452 520 36,500 3,900 Level FlightAware UK
11:50PM 52.8190 -5.7990 106° East 477 549 38,000  Climbing FlightAware
11:51PM 52.7944 -5.6780 106° East 454 522 36,500  Descending FlightAware UK
11:51PM 52.7940 -5.6570 106° East 475 547 38,000  Climbing FlightAware
11:51PM 52.7832 -5.6148 106° East 452 520 36,500 -6,000 Descending FlightAware UK
11:51PM 52.7758 -5.5732 106° East 450 518 36,500  Level FlightAware UK
11:52PM 52.7610 -5.4901 106° East 448 516 36,500 3,000 Level FlightAware UK
11:52PM 52.7670 -5.5060 106° East 472 543 38,000  Climbing FlightAware
11:52PM 52.7463 -5.4078 106° East 450 518 36,500 -2,520 Descending FlightAware UK
11:52PM 52.7348 -5.3443 107° East 450 518 36,500 4,080 Level FlightAware UK
11:52PM 52.7430 -5.3710 107° East 471 542 38,000  Climbing FlightAware
11:53PM 52.7201 -5.2630 107° East 448 516 36,500  Descending FlightAware UK
11:53PM 52.7230 -5.2590 107° East 470 541 38,000  Climbing FlightAware
11:53PM 52.7051 -5.1804 107° East 450 518 36,500 -6,000 Descending FlightAware UK
11:53PM 52.7012 -5.1591 107° East 448 516 36,500  Level FlightAware UK
11:53PM 52.6901 -5.0979 107° East 454 522 36,500 2,520 Level FlightAware UK
11:54PM 52.6860 -5.0590 107° East 472 543 38,000  Climbing FlightAware
11:54PM 52.6786 -5.0354 107° East 454 522 36,500  Descending FlightAware UK
11:54PM 52.6803 -5.0280 107° East 472 543 38,000  Climbing FlightAware ADS-B
11:54PM 52.6635 -4.9531 107° East 454 522 36,500  Descending FlightAware UK
11:54PM 52.6620 -4.9300 107° East 472 543 38,000  Climbing FlightAware
11:55PM 52.6408 -4.8297 107° East 452 520 36,500  Descending FlightAware UK
11:55PM 52.6408 -4.8148 107° East 472 543 38,000  Climbing FlightAware ADS-B
11:55PM 52.6255 -4.7477 107° East 450 518 36,500  Descending FlightAware UK
11:55PM 52.6214 -4.7116 107° East 472 543 38,000  Climbing FlightAware ADS-B
11:56PM 52.6063 -4.6452 107° East 448 516 36,500  Descending FlightAware UK
11:56PM 52.6019 -4.6064 107° East 471 542 38,000  Climbing FlightAware ADS-B
11:56PM 52.5833 -4.5224 107° East 446 513 36,500  Descending FlightAware UK
11:56PM 52.5818 -4.5001 107° East 471 542 38,000  Climbing FlightAware ADS-B
11:57PM 52.5638 -4.4196 107° East 448 516 36,500  Descending FlightAware UK
11:57PM 52.5618 -4.3952 107° East 470 541 38,000  Climbing FlightAware ADS-B
11:57PM 52.5445 -4.3174 107° East 450 518 36,500  Descending FlightAware UK
11:57PM 52.5419 -4.2905 107° East 471 542 38,000  Climbing FlightAware ADS-B
11:58PM 52.5248 -4.2149 107° East 450 518 36,500  Descending FlightAware UK
11:58PM 52.5218 -4.1860 107° East 470 541 38,000  Climbing FlightAware ADS-B
11:58PM 52.5051 -4.1125 107° East 448 516 36,500  Descending FlightAware UK
11:58PM 52.5019 -4.0830 107° East 470 541 38,000  Climbing FlightAware ADS-B
11:59PM 52.4815 -3.9905 107° East 448 516 36,500  Descending FlightAware UK
11:59PM 52.4820 -3.9807 107° East 470 541 38,000  Climbing FlightAware ADS-B
11:59PM 52.4658 -3.9099 107° East 446 513 36,500  Descending FlightAware UK
11:59PM 52.4620 -3.8772 107° East 470 541 38,000  Climbing FlightAware ADS-B
12:00AM 52.4461 -3.8076 107° East 448 516 36,500  Descending FlightAware UK
12:00AM 52.4415 -3.7730 107° East 470 541 38,000  Climbing FlightAware ADS-B
12:00AM 52.4260 -3.7063 107° East 448 516 36,500  Descending FlightAware UK
12:00AM 52.4216 -3.6717 107° East 470 541 38,000  Climbing FlightAware ADS-B
12:01AM 52.4061 -3.6050 107° East 448 516 36,500  Descending FlightAware UK
12:01AM 52.4014 -3.5692 107° East 470 541 38,000  Climbing FlightAware ADS-B
12:01AM 52.3816 -3.4822 107° East 446 513 36,500  Descending FlightAware UK
12:01AM 52.3809 -3.4667 107° East 470 541 38,000  Climbing FlightAware ADS-B
12:02AM 52.3656 -3.4020 107° East 444 511 36,500  Descending FlightAware UK
12:02AM 52.3602 -3.3630 107° East 470 541 38,000  Climbing FlightAware ADS-B
12:02AM 52.3414 -3.2800 107° East 446 513 36,500  Descending FlightAware UK
12:03AM 52.3397 -3.2606 107° East 471 542 38,000  Climbing FlightAware ADS-B
12:03AM 52.3210 -3.1797 107° East 454 522 36,500  Descending FlightAware UK
12:03AM 52.3191 -3.1591 107° East 470 541 38,000  Climbing FlightAware ADS-B
12:03AM 52.3005 -3.0789 107° East 448 516 36,500  Descending FlightAware UK
12:04AM 52.2987 -3.0579 107° East 469 540 38,000  Climbing FlightAware ADS-B
12:04AM 52.2757 -2.9568 107° East 446 513 36,500  Descending FlightAware UK
12:04AM 52.2772 -2.9524 107° East 469 540 38,000  Climbing FlightAware ADS-B
12:04AM 52.2593 -2.8769 107° East 446 513 36,500 -2,520 Descending FlightAware UK
12:05AM 52.2470 -2.8165 108° East 448 516 36,500 4,500 Level FlightAware UK
12:05AM 52.2513 -2.8265 108° East 470 541 38,000  Climbing FlightAware ADS-B
12:05AM 52.2346 -2.7560 108° East 448 516 36,500  Descending FlightAware UK
12:05AM 52.2302 -2.7231 108° East 471 542 38,000  Climbing FlightAware ADS-B
12:05AM 52.2135 -2.6540 108° East 448 516 36,500  Descending FlightAware UK
12:06AM 52.2089 -2.6208 108° East 470 541 38,000  Climbing FlightAware ADS-B
12:06AM 52.1885 -2.5343 108° East 448 516 36,500  Descending FlightAware UK
12:06AM 52.1876 -2.5192 108° East 470 541 38,000  Climbing FlightAware ADS-B
12:07AM 52.1671 -2.4329 108° East 450 518 36,500  Descending FlightAware UK
12:07AM 52.1662 -2.4162 108° East 470 541 38,000  Climbing FlightAware ADS-B
12:07AM 52.1463 -2.3342 108° East 452 520 36,500  Descending FlightAware UK
12:07AM 52.1440 -2.3108 108° East 469 540 38,000  Climbing FlightAware ADS-B
12:08AM 52.1251 -2.2327 108° East 452 520 36,500  Descending FlightAware UK
12:08AM 52.1227 -2.2104 108° East 468 539 38,000  Climbing FlightAware ADS-B
12:08AM 52.1036 -2.1322 108° East 454 522 36,500  Descending FlightAware UK
12:08AM 52.1016 -2.1101 108° East 468 539 38,000  Climbing FlightAware ADS-B
12:09AM 52.0826 -2.0335 108° East 456 525 36,500  Descending FlightAware UK
12:09AM 52.0802 -2.0097 108° East 466 536 38,000  Climbing FlightAware ADS-B
12:09AM 52.0614 -1.9346 108° East 452 520 36,500  Descending FlightAware UK
12:09AM 52.0587 -1.9098 108° East 464 534 38,000  Climbing FlightAware ADS-B
12:10AM 52.0401 -1.8362 108° East 452 520 36,500  Descending FlightAware UK
12:10AM 52.0371 -1.8089 108° East 462 532 38,000  Climbing FlightAware ADS-B
12:10AM 52.0188 -1.7369 108° East 444 511 36,500  Descending FlightAware UK
12:10AM 52.0155 -1.7091 108° East 461 531 38,000  Climbing FlightAware ADS-B
12:11AM 51.9977 -1.6406 108° East 444 511 36,500  Descending FlightAware UK
12:11AM 51.9937 -1.6084 108° East 460 529 38,000  Climbing FlightAware ADS-B
12:11AM 51.9762 -1.5427 108° East 442 509 36,500  Descending FlightAware UK
12:11AM 51.9720 -1.5091 108° East 461 531 38,000  Climbing FlightAware ADS-B
12:12AM 51.9547 -1.4448 108° East 440 506 36,500  Descending FlightAware UK
12:12AM 51.9502 -1.4099 108° East 461 531 38,000  Climbing FlightAware ADS-B
12:12AM 51.9244 -1.3081 108° East 442 509 36,500  Descending FlightAware UK
12:12AM 51.9286 -1.3113 108° East 461 531 38,000  Climbing FlightAware ADS-B
12:13AM 51.9074 -1.2310 108° East 442 509 36,500  Descending FlightAware UK
12:13AM 51.9070 -1.2135 108° East 461 531 38,000  Climbing FlightAware ADS-B
12:13AM 51.8857 -1.1346 108° East 442 509 36,500  Descending FlightAware UK
12:13AM 51.8852 -1.1158 108° East 462 532 38,000  Climbing FlightAware ADS-B
12:14AM 51.8636 -1.0362 108° East 442 509 36,500  Descending FlightAware UK
12:14AM 51.8628 -1.0161 108° East 462 532 38,000  Climbing FlightAware ADS-B
12:14AM 51.8416 -0.9383 108° East 444 511 36,500  Descending FlightAware UK
12:14AM 51.8409 -0.9176 108° East 463 533 38,000  Climbing FlightAware ADS-B
12:15AM 51.8195 -0.8410 108° East 446 513 36,500  Descending FlightAware UK
12:15AM 51.8184 -0.8182 108° East 464 534 38,000  Climbing FlightAware ADS-B
12:15AM 51.7975 -0.7437 108° East 450 518 36,500  Descending FlightAware UK
12:15AM 51.7964 -0.7210 108° East 463 533 38,000  Climbing FlightAware ADS-B
12:16AM 51.7752 -0.6465 108° East 450 518 36,500  Descending FlightAware UK
12:16AM 51.7741 -0.6225 108° East 463 533 38,000  Climbing FlightAware ADS-B
12:16AM 51.7528 -0.5486 108° East 450 518 36,500  Descending FlightAware UK
12:16AM 51.7513 -0.5221 108° East 464 534 38,000  Climbing FlightAware ADS-B
12:17AM 51.7262 -0.4334 108° East 452 520 36,500  Descending FlightAware UK
12:17AM 51.7286 -0.4239 108° East 463 533 38,000  Climbing FlightAware ADS-B
12:17AM 51.7080 -0.3547 108° East 454 522 36,500  Descending FlightAware UK
12:17AM 51.7061 -0.3258 108° East 462 532 38,000  Climbing FlightAware ADS-B
12:18AM 51.6857 -0.2588 108° East 456 525 36,500  Descending FlightAware UK
12:18AM 51.6836 -0.2289 108° East 460 529 38,000  Climbing FlightAware ADS-B
12:18AM 51.6587 -0.1435 108° East 456 525 36,500  Descending FlightAware UK
12:18AM 51.6612 -0.1317 108° East 458 527 38,000  Climbing FlightAware ADS-B
12:19AM 51.6406 -0.0664 108° East 452 520 36,500  Descending FlightAware UK
12:19AM 51.6383 -0.0344 108° East 457 526 38,000  Climbing FlightAware ADS-B
12:19AM 51.6139 0.0471 108° East 454 522 36,500  Descending FlightAware UK
12:19AM 51.6153 0.0639 108° East 455 524 38,000  Climbing FlightAware ADS-B
12:20AM 51.5913 0.1426 108° East 450 518 36,500  Descending FlightAware UK
12:20AM 51.5928 0.1598 108° East 454 522 38,000  Climbing FlightAware ADS-B
12:20AM 51.5688 0.2370 108° East 448 516 36,500  Descending FlightAware UK
12:20AM 51.5705 0.2541 108° East 454 522 38,000  Climbing FlightAware ADS-B
12:21AM 51.5464 0.3304 108° East 446 513 36,500  Descending FlightAware UK
12:21AM 51.5475 0.3505 108° East 453 521 38,000  Climbing FlightAware ADS-B
12:21AM 51.5238 0.4242 108° East 448 516 36,500  Descending FlightAware UK
12:21AM 51.5238 0.4504 108° East 451 519 38,000  Climbing FlightAware ADS-B
12:22AM 51.5013 0.5176 108° East 444 511 36,500  Descending FlightAware UK
12:22AM 51.5012 0.5445 108° East 451 519 38,000  Climbing FlightAware ADS-B
12:22AM 51.4696 0.6482 108° East 446 513 36,500  Descending FlightAware UK
12:23AM 51.4785 0.6389 108° East 450 518 38,000  Climbing FlightAware ADS-B
12:23AM 51.4561 0.7040 108° East 446 513 36,500  Descending FlightAware UK
12:23AM 51.4557 0.7333 108° East 451 519 38,000  Climbing FlightAware ADS-B
12:23AM 51.4333 0.7977 108° East 446 513 36,500  Descending FlightAware UK
12:24AM 51.4328 0.8274 108° East 450 518 38,000  Climbing FlightAware ADS-B
12:24AM 51.4105 0.8905 108° East 446 513 36,500  Descending FlightAware UK
12:24AM 51.4100 0.9214 108° East 450 518 38,000  Climbing FlightAware ADS-B
12:24AM 51.3876 0.9832 108° East 446 513 36,500  Descending FlightAware UK
12:25AM 51.3872 1.0149 108° East 450 518 38,000  Climbing FlightAware ADS-B
12:25AM 51.3645 1.0763 108° East 444 511 36,500  Descending FlightAware UK
12:25AM 51.3643 1.1081 108° East 450 518 38,000  Climbing FlightAware ADS-B
12:25AM 51.3371 1.1868 108° East 444 511 36,500  Descending FlightAware UK
12:26AM 51.3413 1.2012 108° East 450 518 38,000  Climbing FlightAware ADS-B
12:26AM 51.3141 1.2794 108° East 442 509 36,500  Descending FlightAware UK
12:26AM 51.3171 1.2974 108° East 450 518 38,000  Climbing FlightAware ADS-B
12:26AM 51.2900 1.3706 108° East 440 506 36,500  Descending FlightAware UK
12:27AM 51.2930 1.3870 108° East 450 518 38,000 3,900 Climbing FlightAware
12:27AM 51.2826 1.4234 115° Southeast 451 519 38,000 -3,360 Level FlightAware ADS-B
12:27AM 51.2538 1.4986 115° Southeast 448 516 36,500  Descending FlightAware UK
12:27AM 51.2567 1.5176 115° Southeast 452 520 38,000  Climbing FlightAware ADS-B
12:28AM 51.2283 1.5898 115° Southeast 448 516 36,500 -2,460 Descending FlightAware UK
12:28AM 51.2132 1.6446 114° Southeast 448 516 36,500 3,060 Level FlightAware UK
12:28AM 51.2165 1.6632 114° Southeast 452 520 38,000  Climbing FlightAware ADS-B
12:28AM 51.1879 1.7360 114° Southeast 446 513 36,500 -2,460 Descending FlightAware UK
12:29AM 51.1727 1.7914 114° Southeast 448 516 36,500 4,080 Level FlightAware UK
12:29AM 51.1822 1.7882 114° Southeast 453 521 38,000  Climbing FlightAware ADS-B
12:29AM 51.1523 1.8644 114° Southeast 446 513 36,500  Descending FlightAware UK
12:29AM 51.1568 1.8807 114° Southeast 454 522 38,000  Climbing FlightAware ADS-B
12:30AM 51.1217 1.9740 114° Southeast 448 516 36,500  Descending FlightAware UK
12:30AM 51.1302 1.9765 114° Southeast 454 522 38,000  Climbing FlightAware ADS-B
12:30AM 51.1009 2.0475 114° Southeast 444 511 36,500  Descending FlightAware UK
12:30AM 51.1039 2.0709 114° Southeast 455 524 38,000  Climbing FlightAware ADS-B
12:31AM 51.0753 2.1389 114° Southeast 444 511 36,500  Descending FlightAware UK
12:31AM 51.0766 2.1686 114° Southeast 457 526 38,000  Climbing FlightAware ADS-B
12:31AM 51.0494 2.2305 114° Southeast 444 511 36,500  Descending FlightAware UK
12:31AM 51.0502 2.2628 114° Southeast 458 527 38,000  Climbing FlightAware ADS-B
12:32AM 51.0181 2.3406 114° Southeast 452 520 36,500  Descending FlightAware UK
12:32AM 51.0238 2.3566 114° Southeast 458 527 38,000  Climbing FlightAware ADS-B
12:32AM 50.9917 2.4330 114° Southeast 454 522 36,500  Descending FlightAware UK
12:32AM 50.9965 2.4525 114° Southeast 458 527 38,000  Climbing FlightAware ADS-B
12:33AM 50.9653 2.5247 114° Southeast 450 518 36,500  Descending FlightAware UK
12:33AM 50.9686 2.5503 114° Southeast 459 528 38,000  Climbing FlightAware ADS-B
12:33AM 50.9388 2.6170 114° Southeast 450 518 36,500 -2,700 Descending FlightAware UK
12:33AM 50.9232 2.6715 115° Southeast 450 518 36,500 3,300 Level FlightAware UK
12:34AM 50.9330 2.6740 115° Southeast 460 529 38,000  Climbing FlightAware
12:34AM 50.9021 2.7449 115° Southeast 454 522 36,500 -2,760 Descending FlightAware UK
12:34AM 50.8862 2.8000 115° Southeast 458 527 36,500 3,600 Level FlightAware UK
12:34AM 50.8990 2.7930 115° Southeast 459 528 38,000  Climbing FlightAware
12:35AM 50.8648 2.8733 115° Southeast 456 525 36,500 -2,580 Descending FlightAware UK
12:35AM 50.8488 2.9281 115° Southeast 456 525 36,500 3,180 Level FlightAware UK
12:35AM 50.8620 2.9220 115° Southeast 459 528 38,000  Climbing FlightAware
12:35AM 50.8219 3.0198 115° Southeast 460 529 36,500 -2,400 Descending FlightAware UK
12:36AM 50.8058 3.0743 115° Southeast 458 527 36,500 4,500 Level FlightAware UK
12:36AM 50.8230 3.0570 115° Southeast 457 526 38,000  Climbing FlightAware
12:36AM 50.7898 3.1288 115° Southeast 456 525 36,500 -2,580 Descending FlightAware UK
12:36AM 50.7737 3.1838 115° Southeast 456 525 36,500 3,720 Level FlightAware UK
12:36AM 50.7870 3.1780 115° Southeast 456 525 38,000  Climbing FlightAware
12:37AM 50.7525 3.2563 115° Southeast 456 525 36,500 -2,460 Descending FlightAware UK
12:37AM 50.7365 3.3103 115° Southeast 454 522 36,500 3,420 Level FlightAware UK
12:37AM 50.7480 3.3130 115° Southeast 455 524 38,000  Climbing FlightAware
12:38AM 50.7043 3.4182 115° Southeast 454 522 36,500  Descending FlightAware UK
12:38AM 50.7120 3.4350 115° Southeast 454 522 38,000  Climbing FlightAware
12:38AM 50.6612 3.5624 115° Southeast 454 522 36,500  Descending FlightAware UK
12:39AM 50.6720 3.5670 115° Southeast 454 522 38,000  Climbing FlightAware
12:39AM 50.6395 3.6337 115° Southeast 454 522 36,500 -2,760 Descending FlightAware UK
12:39AM 50.6235 3.6874 115° Southeast 456 525 36,500 3,600 Level FlightAware UK
12:39AM 50.6370 3.6860 115° Southeast 453 521 38,000  Climbing FlightAware
12:40AM 50.5967 3.7766 115° Southeast 456 525 36,500  Descending FlightAware UK
12:40AM 50.6000 3.8080 115° Southeast 451 519 38,000  Climbing FlightAware
12:40AM 50.5589 3.9006 115° Southeast 456 525 36,500 -2,100 Descending FlightAware UK
12:41AM 50.5430 3.9539 115° Southeast 454 522 36,500 4,500 Level FlightAware UK
12:41AM 50.5610 3.9390 115° Southeast 448 516 38,000  Climbing FlightAware
12:41AM 50.5271 4.0071 115° Southeast 454 522 36,500 -2,700 Descending FlightAware UK
12:41AM 50.5110 4.0598 116° Southeast 454 522 36,500 3,720 Level FlightAware UK
12:41AM 50.5250 4.0550 116° Southeast 446 513 38,000  Climbing FlightAware
12:42AM 50.4896 4.1297 116° Southeast 454 522 36,500 -2,520 Descending FlightAware UK
12:42AM 50.4730 4.1808 117° Southeast 450 518 36,500 3,300 Level FlightAware UK
12:42AM 50.4870 4.1820 117° Southeast 445 512 38,000  Climbing FlightAware
12:42AM 50.4522 4.2523 117° Southeast 1 1 36,500 -2,760 Descending FlightAware UK
12:43AM 50.4361 4.3044 116° Southeast 450 518 36,500 3,600 Level FlightAware UK
12:43AM 50.4500 4.3020 116° Southeast 444 511 38,000  Climbing FlightAware
12:43AM 50.4133 4.3714 116° Southeast 450 518 36,500 -2,580 Descending FlightAware UK
12:43AM 50.3972 4.4232 116° Southeast 1 1 36,500 3,900 Level FlightAware UK
12:43AM 50.4140 4.4180 116° Southeast 443 510 38,000  Climbing FlightAware
12:44AM 50.3769 4.4947 116° Southeast 1 1 36,500 -2,460 Descending FlightAware UK
12:44AM 50.3602 4.5456 117° Southeast 1 1 36,500 3,420 Level FlightAware UK
12:44AM 50.3740 4.5490 117° Southeast 443 510 38,000 1,860 Climbing FlightAware
12:45AM 50.3380 4.6640 116° Southeast 442 509 38,000  Level FlightAware
12:45AM 50.3020 4.7800 116° Southeast 442 509 38,000  Level FlightAware
12:46AM 50.2630 4.9010 117° Southeast 441 507 38,000  Level FlightAware
12:47AM 50.2260 5.0180 116° Southeast 440 506 38,000  Level FlightAware
12:48AM 50.1900 5.1320 116° Southeast 440 506 38,000  Level FlightAware
12:48AM 50.1490 5.2620 116° Southeast 439 505 38,000  Level FlightAware
12:49AM 50.1140 5.3700 117° Southeast 439 505 38,000 -120 Level FlightAware
12:50AM 50.0720 5.5000 117° Southeast 440 506 37,900 -840 Descending FlightAware
12:50AM 50.0310 5.6270 117° Southeast 441 507 36,800 -1,140 Descending FlightAware
12:51AM 49.9940 5.7410 117° Southeast 432 497 36,300 -1,020 Descending FlightAware
12:52AM 49.9580 5.8500 117° Southeast 426 490 35,500 -1,020 Descending FlightAware
12:52AM 49.9230 5.9570 117° Southeast 430 495 35,000 -360 Descending FlightAware
12:53AM 49.8860 6.0670 118° Southeast 430 495 35,000  Level FlightAware
12:54AM 49.8440 6.1920 117° Southeast 430 495 35,000  Level FlightAware
12:55AM 49.8070 6.3060 117° Southeast 429 494 35,000  Level FlightAware
12:55AM 49.7740 6.4040 118° Southeast 428 493 35,000 -120 Level FlightAware
12:56AM 49.7340 6.5220 118° Southeast 424 488 34,900 -1,200 Descending FlightAware
12:57AM 49.6980 6.6280 118° Southeast 424 488 33,300 -2,400 Descending FlightAware
12:57AM 49.6570 6.7490 118° Southeast 422 486 31,500 -2,880 Descending FlightAware
12:58AM 49.6150 6.8710 118° Southeast 430 495 29,000 -3,300 Descending FlightAware
12:59AM 49.5770 6.9800 118° Southeast 431 496 26,900 -2,400 Descending FlightAware
12:59AM 49.5390 7.0820 120° Southeast 411 473 25,800 -1,380 Descending FlightAware
01:00AM 49.4900 7.1920 124° Southeast 406 467 25,000 -1,080 Descending FlightAware
01:01AM 49.4440 7.2860 127° Southeast 406 467 24,300 -1,080 Descending FlightAware
01:02AM 49.3950 7.3870 127° Southeast 407 468 23,500 -1,140 Descending FlightAware
01:02AM 49.3490 7.4810 127° Southeast 402 463 22,700 -1,380 Descending FlightAware
01:03AM 49.3050 7.5700 127° Southeast 399 459 21,700 -1,500 Descending FlightAware
01:04AM 49.2550 7.6720 127° Southeast 390 449 20,600 -1,560 Descending FlightAware
01:04AM 49.2120 7.7620 126° Southeast 386 444 19,500 -1,560 Descending FlightAware
01:05AM 49.1630 7.8600 127° Southeast 382 440 18,400 -1,440 Descending FlightAware
01:06AM 49.1260 7.9350 127° Southeast 364 419 17,500 -1,500 Descending FlightAware
01:06AM 49.0840 8.0210 127° Southeast 356 410 16,400 -1,860 Descending FlightAware
01:07AM 49.0390 8.1120 127° Southeast 351 404 14,900 -2,220 Descending FlightAware
01:08AM 48.9980 8.1940 127° Southeast 346 398 13,300 -1,500 Descending FlightAware
01:09AM 48.9640 8.2610 128° Southeast 345 397 12,900 -600 Descending FlightAware
01:11AM 48.8512 8.6612 113° Southeast  Level Estimated
01:12AM 48.7933 8.8639 113° Southeast  Level Estimated
01:13AM 48.7350 9.0663 114° Southeast  Level Estimated
01:14AM 48.6899 9.2220 114° Southeast  Level Estimated
01:15AM 48.6899 9.2220 127° Southeast  Level Estimated
01:16AM 48.6899 9.2220 127° Southeast  Level Estimated
01:17AM 48.6899 9.2220 127° Southeast  Level Estimated
01:18AM 48.6899 9.2220 127° Southeast  Level Estimated
01:19AM 48.6899 9.2220 127° Southeast  Level Estimated
01:20AM 48.6899 9.2220 127° Southeast  Level Estimated
01:21AM 48.6899 9.2220 127° Southeast  Level Estimated
01:22AM 48.6899 9.2220 127° Southeast  Level Estimated
01:23AM 48.6899 9.2220 127° Southeast  Level Estimated
01:24AM 48.6899 9.2220 127° Southeast  Level Estimated
01:25AM 48.6899 9.2220 127° Southeast  Level Estimated
01:26AM 48.6899 9.2220 127° Southeast  Level Estimated